West Union, Minnesota
Current Conditions -  °F | °C
As of 10:52 PM on Saturday 20 Dec 2014 (Local Time) from KD39 Reporting Station
Haze Haze  
Wind Chill: 18°   Ceiling: 500
Heat Index: 29°   Visibility: 5mi
Dew Point: 28°   Wind: 15mph
Humidity: 96%   Direction: 160°SSE
Pressure: 30"   Gusts: NA
Location:  45.8°N, 95.08°W
Report Text: KD39 210452Z AUTO 16013KT 5SM BR OVC005 M02/M02 A3000 RMK AO2 T10161022
Loading
Personal Weather Stations






























Interactive Weather Map New forecast layout! Learn more

10-Day Weather Forecast

Advertisements
Track Severe Weather on mobile